Time;durP1;ratioP1;P1;durP2;ratioP2;P2;SDS_P1;SDS_P2;PMS_P1;PMS_P2;Temp;Humidity;BMP_temperature;BMP_pressure;BME280_temperature;BME280_humidity;BME280_pressure;Samples;Min_cycle;Max_cycle;Signal;HPM_P1;HPM_P2
2022/09/18 00:01:25;;;;;;;10.63;2.20;;;14.00;99.90;;;-147.18;100.00;67318.16;5040761;28;20040;-82
2022/09/18 00:04:53;;;;;;;9.02;2.00;;;14.00;99.90;;;-147.18;100.00;67318.16;5040364;28;20052;-83
2022/09/18 00:08:19;;;;;;;8.98;2.10;;;14.10;99.90;;;-147.18;100.00;67318.16;5042755;28;20832;-82
2022/09/18 00:11:46;;;;;;;11.50;2.13;;;14.10;99.90;;;-147.18;100.00;67318.16;5046493;28;20041;-83
2022/09/18 00:15:13;;;;;;;9.52;2.45;;;14.10;99.90;;;-147.18;100.00;67318.16;5037058;28;20485;-82
2022/09/18 00:18:39;;;;;;;15.30;2.50;;;14.10;99.90;;;-147.18;100.00;67318.16;5043197;28;20041;-82
2022/09/18 00:22:07;;;;;;;12.02;1.92;;;14.10;99.90;;;-147.18;100.00;67318.16;5037774;28;20502;-83
2022/09/18 00:25:33;;;;;;;10.48;2.10;;;14.10;99.90;;;-147.18;100.00;67318.16;5039033;28;20040;-83
2022/09/18 00:28:59;;;;;;;8.93;2.60;;;14.00;99.90;;;-147.18;100.00;67318.16;5042723;28;20056;-83
2022/09/18 00:32:27;;;;;;;13.20;3.42;;;14.10;99.90;;;-147.18;100.00;67318.16;5041160;28;20057;-83
2022/09/18 00:35:53;;;;;;;10.13;3.47;;;14.10;99.90;;;-147.18;100.00;67318.16;5039004;28;20041;-82
2022/09/18 00:39:20;;;;;;;15.02;3.25;;;14.10;99.90;;;-147.18;100.00;67318.16;5043211;28;20041;-82
2022/09/18 00:42:45;;;;;;;9.00;2.90;;;14.10;99.90;;;-147.18;100.00;67318.16;5058899;28;20123;-83
2022/09/18 00:46:19;;;;;;;12.48;2.88;;;14.10;99.90;;;-147.18;100.00;67318.16;5055333;22;20050;-77
2022/09/18 00:49:50;;;;;;;11.65;2.63;;;14.10;99.90;;;-147.18;100.00;67318.16;5018357;28;20051;-77
2022/09/18 00:53:18;;;;;;;10.23;2.70;;;14.10;99.90;;;-147.18;100.00;67318.16;5016667;28;20129;-77
2022/09/18 00:56:45;;;;;;;15.80;2.65;;;14.00;99.90;;;-147.18;100.00;67318.16;4995565;28;20046;-77
2022/09/18 01:00:13;;;;;;;11.10;3.53;;;14.00;99.90;;;-147.18;100.00;67318.16;5007701;28;20051;-77
2022/09/18 01:03:40;;;;;;;8.45;2.60;;;14.00;99.90;;;-147.18;100.00;67318.16;4994150;28;20057;-77
2022/09/18 01:07:14;;;;;;;7.72;2.95;;;14.00;99.90;;;-147.18;100.00;67318.16;5012351;28;20763;-77
2022/09/18 01:11:00;;;;;;;10.93;2.78;;;14.00;99.90;;;-147.18;100.00;67318.16;4996907;28;20049;-77
2022/09/18 01:14:36;;;;;;;10.77;2.92;;;14.00;99.90;;;-147.18;100.00;67318.16;5014316;28;20043;-77
2022/09/18 01:18:15;;;;;;;11.27;3.13;;;14.00;99.90;;;-147.18;100.00;67318.16;5012618;28;20742;-78
2022/09/18 01:22:15;;;;;;;10.27;2.60;;;14.00;99.90;;;-147.18;100.00;67318.16;5011647;28;20574;-77
2022/09/18 01:26:07;;;;;;;13.35;2.80;;;14.10;99.90;;;-147.18;100.00;67318.16;4995843;28;20486;-77
2022/09/18 01:29:43;;;;;;;8.27;2.70;;;14.10;99.90;;;-147.18;100.00;67318.16;5014308;28;20070;-77
2022/09/18 01:33:19;;;;;;;11.10;3.10;;;14.00;99.90;;;-147.18;100.00;67318.16;5012882;28;20116;-77
2022/09/18 01:36:49;;;;;;;10.73;2.85;;;14.10;99.90;;;-147.18;100.00;67318.16;4994580;28;20046;-77
2022/09/18 01:40:21;;;;;;;11.98;2.67;;;14.10;99.90;;;-147.18;100.00;67318.16;4995953;28;20049;-77
2022/09/18 01:43:53;;;;;;;;;;;14.10;99.90;;;-147.18;100.00;67318.16;4995788;28;20058;-77
2022/09/18 01:47:20;;;;;;;12.75;2.83;;;14.10;99.90;;;-147.18;100.00;67318.16;4989341;28;19930;-77
2022/09/18 01:50:50;;;;;;;12.73;2.95;;;14.10;99.90;;;-147.18;100.00;67318.16;4989310;28;20050;-76
2022/09/18 01:54:23;;;;;;;14.38;3.35;;;14.10;99.90;;;-147.18;100.00;67318.16;5009238;28;20057;-77
2022/09/18 01:57:53;;;;;;;14.68;3.03;;;14.10;99.90;;;-147.18;100.00;67318.16;4998384;28;20050;-77
2022/09/18 02:01:22;;;;;;;11.85;2.50;;;14.10;99.90;;;-147.18;100.00;67318.16;5012655;28;20129;-77
2022/09/18 02:04:52;;;;;;;13.65;2.60;;;14.10;99.90;;;-147.18;100.00;67318.16;5013672;28;20111;-76
2022/09/18 02:08:27;;;;;;;11.75;2.65;;;14.10;99.90;;;-147.18;100.00;67318.16;5011565;28;20515;-77
2022/09/18 02:12:03;;;;;;;13.50;2.50;;;14.20;99.90;;;-147.18;100.00;67318.16;5008076;28;20055;-77
2022/09/18 02:15:37;;;;;;;8.70;2.13;;;14.10;99.90;;;-147.18;100.00;67318.16;5013269;28;20041;-77
2022/09/18 02:19:15;;;;;;;8.25;2.53;;;14.10;99.90;;;-147.18;100.00;67318.16;4995856;28;20057;-77
2022/09/18 02:22:45;;;;;;;14.45;3.30;;;14.10;99.90;;;-147.18;100.00;67318.16;4996926;28;20119;-77
2022/09/18 02:26:15;;;;;;;13.75;2.58;;;14.10;99.90;;;-147.18;100.00;67318.16;4996520;28;20057;-77
2022/09/18 02:29:45;;;;;;;7.90;2.10;;;14.10;99.90;;;-147.18;100.00;67318.16;5011038;28;20057;-77
2022/09/18 02:33:23;;;;;;;11.13;2.88;;;14.10;99.90;;;-147.18;100.00;67318.16;5007668;28;20145;-77
2022/09/18 02:37:02;;;;;;;10.80;2.95;;;14.10;99.90;;;-147.18;100.00;67318.16;5011370;28;20033;-77
2022/09/18 02:40:46;;;;;;;10.45;3.05;;;14.20;99.90;;;-147.18;100.00;67318.16;4993894;28;20077;-77
2022/09/18 02:44:28;;;;;;;8.75;3.15;;;14.10;99.90;;;-147.18;100.00;67318.16;5009806;28;20521;-77
2022/09/18 02:48:16;;;;;;;11.13;2.97;;;14.10;99.90;;;-147.18;100.00;67318.16;4995085;28;20103;-77
2022/09/18 02:51:51;;;;;;;11.40;2.75;;;14.10;99.90;;;-147.18;100.00;67318.16;5003288;28;20070;-77
2022/09/18 02:55:25;;;;;;;13.48;3.10;;;14.10;99.90;;;-147.18;100.00;67318.16;5011283;28;20125;-77
2022/09/18 02:58:56;;;;;;;8.30;3.80;;;14.10;99.90;;;-147.18;100.00;67318.16;5004251;28;20053;-77
2022/09/18 03:02:25;;;;;;;14.98;5.10;;;14.10;99.90;;;-147.18;100.00;67318.16;4988040;28;20098;-77
2022/09/18 03:05:52;;;;;;;12.30;4.13;;;14.10;99.90;;;-147.18;100.00;67318.16;5007673;28;20419;-77
2022/09/18 03:09:18;;;;;;;9.18;4.32;;;14.10;99.90;;;-147.18;100.00;67318.16;5009375;28;20038;-77
2022/09/18 03:12:44;;;;;;;13.00;4.78;;;14.10;99.90;;;-147.18;100.00;67318.16;5009825;28;20165;-77
2022/09/18 03:16:10;;;;;;;8.77;4.38;;;14.30;99.90;;;-147.18;100.00;67318.16;4995421;28;20048;-77
2022/09/18 03:19:35;;;;;;;12.55;4.53;;;14.10;99.90;;;-147.18;100.00;67318.16;5007897;28;20138;-77
2022/09/18 03:23:03;;;;;;;21.60;4.53;;;14.10;99.90;;;-147.18;100.00;67318.16;4995129;28;21978;-77
2022/09/18 03:26:29;;;;;;;11.85;4.65;;;14.10;99.90;;;-147.18;100.00;67318.16;4992373;28;20464;-77
2022/09/18 03:29:55;;;;;;;13.27;3.80;;;14.10;99.90;;;-147.18;100.00;67318.16;4995438;28;20067;-77
2022/09/18 03:33:23;;;;;;;12.82;4.20;;;14.20;99.90;;;-147.18;100.00;67318.16;4996089;28;20052;-77
2022/09/18 03:36:49;;;;;;;12.93;4.70;;;14.20;99.90;;;-147.18;100.00;67318.16;5010405;28;20050;-77
2022/09/18 03:40:18;;;;;;;13.20;4.65;;;14.20;99.90;;;-147.18;100.00;67318.16;5010174;28;20602;-77
2022/09/18 03:43:44;;;;;;;12.43;4.40;;;14.10;99.90;;;-147.18;100.00;67318.16;5009070;28;20043;-77
2022/09/18 03:47:11;;;;;;;12.63;4.30;;;14.10;99.90;;;-147.18;100.00;67318.16;4994841;28;20435;-77
2022/09/18 03:50:37;;;;;;;10.32;4.53;;;14.10;99.90;;;-147.18;100.00;67318.16;5011883;28;20052;-77
2022/09/18 03:54:05;;;;;;;9.90;4.07;;;14.10;99.90;;;-147.18;100.00;67318.16;5008160;28;20049;-77
2022/09/18 03:58:01;;;;;;;10.90;4.13;;;14.40;99.90;;;-147.18;100.00;67318.16;4981695;28;20046;-77
2022/09/18 04:01:40;;;;;;;9.85;3.92;;;14.20;99.90;;;-147.18;100.00;67318.16;4994612;28;20075;-77
2022/09/18 04:05:31;;;;;;;8.52;3.90;;;14.10;99.90;;;-147.18;100.00;67318.16;4988489;28;21030;-77
2022/09/18 04:09:16;;;;;;;13.00;4.15;;;14.10;99.90;;;-147.18;100.00;67318.16;4991169;28;20057;-77
2022/09/18 04:12:49;;;;;;;11.52;4.00;;;14.20;99.90;;;-147.18;100.00;67318.16;4998868;28;20474;-77
2022/09/18 04:16:21;;;;;;;12.73;4.35;;;14.20;99.90;;;-147.18;100.00;67318.16;5017440;28;20417;-77
2022/09/18 04:19:47;;;;;;;6.70;3.17;;;14.20;99.90;;;-147.18;100.00;67318.16;5005637;28;20509;-77
2022/09/18 04:23:13;;;;;;;12.00;4.40;;;14.20;99.90;;;-147.18;100.00;67318.16;5000243;28;20060;-76
2022/09/18 04:26:39;;;;;;;13.38;4.50;;;14.20;99.90;;;-147.18;100.00;67318.16;4997173;28;20046;-77
2022/09/18 04:30:07;;;;;;;10.00;4.45;;;14.20;99.90;;;-147.18;100.00;67318.16;5019562;28;20061;-77
2022/09/18 04:33:34;;;;;;;13.65;4.40;;;14.20;99.90;;;-147.18;100.00;67318.16;5009692;28;20084;-77
2022/09/18 04:37:04;;;;;;;11.75;4.30;;;14.10;99.90;;;-147.18;100.00;67318.16;5000072;28;20513;-76
2022/09/18 04:40:32;;;;;;;10.65;4.03;;;14.10;99.90;;;-147.18;100.00;67318.16;5011944;28;20050;-77
2022/09/18 04:43:58;;;;;;;9.55;3.90;;;14.10;99.90;;;-147.18;100.00;67318.16;4996124;28;20050;-76
2022/09/18 04:47:25;;;;;;;9.07;3.38;;;14.10;99.90;;;-147.18;100.00;67318.16;5014519;28;20789;-77
2022/09/18 04:50:51;;;;;;;11.02;3.42;;;14.10;99.90;;;-147.18;100.00;67318.16;5018370;28;20056;-77
2022/09/18 04:54:17;;;;;;;9.00;3.20;;;14.20;99.90;;;-147.18;100.00;67318.16;4998147;28;20490;-77
2022/09/18 04:57:43;;;;;;;12.10;3.28;;;14.10;99.90;;;-147.18;100.00;67318.16;5008803;28;20054;-78
2022/09/18 05:01:10;;;;;;;10.65;3.13;;;14.10;99.90;;;-147.18;100.00;67318.16;4999847;28;20054;-77
2022/09/18 05:04:37;;;;;;;9.73;2.60;;;14.10;99.90;;;-147.18;100.00;67318.16;5018415;28;20046;-77
2022/09/18 05:08:14;;;;;;;9.90;3.25;;;14.10;99.90;;;-147.18;100.00;67318.16;5016858;28;20046;-77
2022/09/18 05:11:41;;;;;;;9.48;2.78;;;14.10;99.90;;;-147.18;100.00;67318.16;4995045;28;20129;-77
2022/09/18 05:15:07;;;;;;;10.70;3.08;;;14.10;99.90;;;-147.18;100.00;67318.16;5006915;28;20042;-77
2022/09/18 05:18:33;;;;;;;10.82;2.70;;;14.10;99.90;;;-147.18;100.00;67318.16;4993785;28;20410;-77
2022/09/18 05:22:03;;;;;;;7.20;2.85;;;14.10;99.90;;;-147.18;100.00;67318.16;5012952;28;20076;-77
2022/09/18 05:25:32;;;;;;;10.18;2.65;;;14.10;99.90;;;-147.18;100.00;67318.16;5008752;28;20128;-77
2022/09/18 05:28:59;;;;;;;15.23;4.05;;;14.10;99.90;;;-147.18;100.00;67318.16;5009384;28;20054;-77
2022/09/18 05:32:24;;;;;;;8.90;3.20;;;14.10;99.90;;;-147.18;100.00;67318.16;5013649;28;20050;-77
2022/09/18 05:35:53;;;;;;;12.57;4.53;;;14.10;99.90;;;-147.18;100.00;67318.16;5008602;28;20468;-77
2022/09/18 05:39:20;;;;;;;7.20;3.75;;;14.10;99.90;;;-147.18;100.00;67318.16;4992650;28;20298;-77
2022/09/18 05:42:47;;;;;;;14.18;6.05;;;14.10;99.90;;;-147.18;100.00;67318.16;4995260;28;20185;-77
2022/09/18 05:46:14;;;;;;;13.25;6.20;;;14.10;99.90;;;-147.18;100.00;67318.16;5008792;28;20042;-77
2022/09/18 05:49:48;;;;;;;10.75;5.72;;;14.10;99.90;;;-147.18;100.00;67318.16;5000098;28;20042;-77
2022/09/18 05:53:15;;;;;;;18.08;6.65;;;14.20;99.90;;;-147.18;100.00;67318.16;5011078;28;20400;-78
2022/09/18 05:56:59;;;;;;;15.75;5.97;;;14.20;99.90;;;-147.18;100.00;67318.16;5011438;28;20057;-77
2022/09/18 06:00:26;;;;;;;12.48;5.80;;;14.20;99.90;;;-147.18;100.00;67318.16;4998734;28;20050;-78
2022/09/18 06:04:02;;;;;;;12.68;5.93;;;14.20;99.90;;;-147.18;100.00;67318.16;4995517;28;20049;-77
2022/09/18 06:07:38;;;;;;;13.20;6.40;;;14.20;99.90;;;-147.18;100.00;67318.16;5000313;28;20082;-77
2022/09/18 06:11:20;;;;;;;13.80;7.60;;;14.20;99.90;;;-147.18;100.00;67318.16;5013733;28;20056;-78
2022/09/18 06:14:46;;;;;;;12.98;6.65;;;14.20;99.90;;;-147.18;100.00;67318.16;4987881;28;20050;-77
2022/09/18 06:18:13;;;;;;;14.30;6.45;;;14.20;99.90;;;-147.18;100.00;67318.16;4988808;28;20041;-77
2022/09/18 06:21:40;;;;;;;11.80;6.47;;;14.20;99.90;;;-147.18;100.00;67318.16;5009221;28;20042;-77
2022/09/18 06:25:09;;;;;;;13.30;5.57;;;14.20;99.90;;;-147.18;100.00;67318.16;5000718;28;20444;-76
2022/09/18 06:28:37;;;;;;;10.02;5.30;;;14.30;99.90;;;-147.18;100.00;67318.16;5007177;28;20360;-77
2022/09/18 06:32:04;;;;;;;10.77;4.45;;;14.30;99.90;;;-147.18;100.00;67318.16;4987647;28;20039;-77
2022/09/18 06:35:32;;;;;;;9.93;4.28;;;14.30;99.90;;;-147.18;100.00;67318.16;4979007;28;20042;-79
2022/09/18 06:38:59;;;;;;;10.10;3.85;;;14.30;99.90;;;-147.18;100.00;67318.16;4980125;28;20047;-78
2022/09/18 06:42:25;;;;;;;10.13;3.65;;;14.30;99.90;;;-147.18;100.00;67318.16;4997908;28;20418;-78
2022/09/18 06:46:11;;;;;;;10.93;3.85;;;14.60;99.90;;;-147.18;100.00;67318.16;5036896;22;20112;-91
2022/09/18 06:49:42;;;;;;;11.80;4.28;;;14.40;99.90;;;-147.18;100.00;67318.16;5014346;28;20528;-86
2022/09/18 06:53:07;;;;;;;9.10;3.45;;;14.40;99.90;;;-147.18;100.00;67318.16;5010664;28;20045;-90
2022/09/18 06:56:38;;;;;;;12.90;4.97;;;14.30;99.90;;;-147.18;100.00;67318.16;5035272;28;20453;-91
2022/09/18 07:00:09;;;;;;;9.32;3.38;;;14.50;99.90;;;-147.18;100.00;67318.16;5035983;28;20121;-89
2022/09/18 07:03:38;;;;;;;8.55;2.85;;;14.30;99.90;;;-147.18;100.00;67318.16;5026120;28;20052;-91
2022/09/18 07:07:33;;;;;;;8.05;3.22;;;14.30;99.90;;;-147.18;100.00;67318.16;5008335;28;20124;-89
2022/09/18 07:11:00;;;;;;;7.50;3.00;;;14.30;99.90;;;-147.18;100.00;67318.16;5036843;28;20057;-81
2022/09/18 07:14:25;;;;;;;11.73;3.75;;;14.40;99.90;;;-147.18;100.00;67318.16;5028178;28;20045;-85
2022/09/18 07:17:57;;;;;;;12.55;4.03;;;14.40;99.90;;;-147.18;100.00;67318.16;5023657;28;20046;-85
2022/09/18 07:21:23;;;;;;;8.98;4.47;;;14.40;99.90;;;-147.18;100.00;67318.16;5038705;28;20040;-83
2022/09/18 07:24:58;;;;;;;9.65;4.00;;;14.40;99.90;;;-147.18;100.00;67318.16;5033980;28;20509;-84
2022/09/18 07:28:24;;;;;;;10.52;3.70;;;14.40;99.90;;;-147.18;100.00;67318.16;5031718;28;20136;-84
2022/09/18 07:32:01;;;;;;;8.10;2.88;;;14.50;99.90;;;-147.18;100.00;67318.16;5032053;28;20049;-85
2022/09/18 07:35:32;;;;;;;9.70;2.95;;;14.50;99.90;;;-147.18;100.00;67318.16;5034512;28;20047;-85
2022/09/18 07:39:03;;;;;;;7.95;2.13;;;14.50;99.90;;;-147.18;100.00;67318.16;5033178;28;20045;-88
2022/09/18 07:42:39;;;;;;;4.63;1.50;;;14.70;99.90;;;-147.18;100.00;67318.16;5027119;28;20049;-86
2022/09/18 07:46:06;;;;;;;8.43;1.80;;;14.50;99.90;;;-147.18;100.00;67318.16;5032376;28;20064;-86
2022/09/18 07:49:36;;;;;;;6.03;1.70;;;14.60;99.90;;;-147.18;100.00;67318.16;5031422;28;20076;-86
2022/09/18 07:53:04;;;;;;;6.78;1.30;;;14.60;99.90;;;-147.18;100.00;67318.16;5040473;28;20057;-86
2022/09/18 07:56:34;;;;;;;5.38;1.25;;;14.60;99.90;;;-147.18;100.00;67318.16;5031546;28;20037;-86
2022/09/18 08:00:01;;;;;;;7.20;1.60;;;14.70;99.90;;;-147.18;100.00;67318.16;5043987;28;20563;-86
2022/09/18 08:03:28;;;;;;;4.72;1.23;;;14.70;99.90;;;-147.18;100.00;67318.16;5028271;28;20084;-86
2022/09/18 08:07:02;;;;;;;5.18;1.77;;;14.70;99.90;;;-147.18;100.00;67318.16;5021255;28;20123;-86
2022/09/18 08:10:50;;;;;;;6.43;1.20;;;14.80;99.90;;;-147.18;100.00;67318.16;5029464;28;20061;-87
2022/09/18 08:14:34;;;;;;;4.43;1.52;;;14.80;99.90;;;-147.18;100.00;67318.16;5031081;28;20048;-86
2022/09/18 08:18:20;;;;;;;7.10;1.58;;;14.80;99.90;;;-147.18;100.00;67318.16;5029543;28;20122;-86
2022/09/18 08:22:00;;;;;;;8.18;1.58;;;14.80;99.90;;;-147.18;100.00;67318.16;5036468;28;20533;-87
2022/09/18 08:25:27;;;;;;;6.78;1.80;;;14.90;99.90;;;-147.18;100.00;67318.16;5032851;28;20130;-86
2022/09/18 08:28:53;;;;;;;6.00;2.67;;;14.80;99.90;;;-147.18;100.00;67318.16;5041764;28;20533;-86
2022/09/18 08:32:19;;;;;;;7.30;2.67;;;14.90;99.90;;;-147.18;100.00;67318.16;5023611;28;20429;-86
2022/09/18 08:35:44;;;;;;;6.22;2.80;;;14.90;99.90;;;-147.18;100.00;67318.16;5024454;28;20526;-86
2022/09/18 08:39:20;;;;;;;9.95;3.10;;;14.90;99.90;;;-147.18;100.00;67318.16;5007826;28;20050;-86
2022/09/18 08:43:20;;;;;;;14.27;3.45;;;14.90;99.90;;;-147.18;100.00;67318.16;5033859;28;20506;-86
2022/09/18 08:46:55;;;;;;;8.20;2.60;;;14.90;99.90;;;-147.18;100.00;67318.16;5042332;28;20114;-86
2022/09/18 08:50:26;;;;;;;9.43;2.88;;;15.00;99.90;;;-147.18;100.00;67318.16;5028336;28;20133;-86
2022/09/18 08:54:09;;;;;;;9.32;2.20;;;14.90;99.90;;;-147.18;100.00;67318.16;5033844;28;20045;-86
2022/09/18 08:58:15;;;;;;;5.90;2.67;;;15.00;99.90;;;-147.18;100.00;67318.16;5044529;28;20055;-86
2022/09/18 09:01:53;;;;;;;7.40;2.80;;;15.00;99.90;;;-147.18;100.00;67318.16;5034363;28;20047;-86
2022/09/18 09:05:26;;;;;;;5.03;1.92;;;15.00;99.90;;;-147.18;100.00;67318.16;5029725;28;20052;-86
2022/09/18 09:09:28;;;;;;;7.47;2.60;;;15.00;99.90;;;-147.18;100.00;67318.16;5035671;28;20080;-86
2022/09/18 09:13:10;;;;;;;9.57;2.00;;;14.90;99.90;;;-147.18;100.00;67318.16;5041775;28;20128;-87
2022/09/18 09:16:42;;;;;;;8.93;1.80;;;15.00;99.90;;;-147.18;100.00;67318.16;5045947;28;20036;-86
2022/09/18 09:20:22;;;;;;;6.65;2.00;;;15.00;99.90;;;-147.18;100.00;67318.16;5032050;28;20051;-86
2022/09/18 09:24:07;;;;;;;9.23;2.10;;;15.10;99.90;;;-147.18;100.00;67318.16;5035223;28;20045;-86
2022/09/18 09:28:14;;;;;;;6.80;2.20;;;15.10;99.90;;;-147.18;100.00;67318.16;5033940;28;20058;-86
2022/09/18 09:32:13;;;;;;;9.18;2.47;;;15.10;99.90;;;-147.18;100.00;67318.16;5034668;28;20053;-86
2022/09/18 09:36:00;;;;;;;6.63;2.17;;;15.10;99.90;;;-147.18;100.00;67318.16;5036759;28;20135;-86
2022/09/18 09:39:47;;;;;;;6.50;2.03;;;15.10;99.90;;;-147.18;100.00;67318.16;5040236;28;20103;-86
2022/09/18 09:43:19;;;;;;;7.05;2.00;;;15.10;99.90;;;-147.18;100.00;67318.16;5031796;28;20041;-81
2022/09/18 09:46:51;;;;;;;9.15;2.63;;;15.10;99.90;;;-147.18;100.00;67318.16;5030156;28;20056;-88
2022/09/18 09:50:34;;;;;;;7.80;2.40;;;15.10;99.90;;;-147.18;100.00;67318.16;5034380;28;20037;-86
2022/09/18 09:54:07;;;;;;;7.70;2.30;;;15.10;99.90;;;-147.18;100.00;67318.16;5030605;28;20485;-86
2022/09/18 09:57:51;;;;;;;6.55;2.03;;;15.10;99.90;;;-147.18;100.00;67318.16;5037494;28;20041;-86
2022/09/18 10:02:12;;;;;;;5.55;2.38;;;15.20;99.90;;;-147.18;100.00;67318.16;5033581;28;20042;-87
2022/09/18 10:06:17;;;;;;;6.25;2.10;;;15.20;99.90;;;-147.18;100.00;67318.16;5056889;23;20049;-87
2022/09/18 10:10:26;;;;;;;8.45;2.10;;;15.20;99.90;;;-147.18;100.00;67318.16;5043795;28;20413;-88
2022/09/18 10:14:14;;;;;;;6.82;2.45;;;15.20;99.90;;;-147.18;100.00;67318.16;5016365;28;20136;-87
2022/09/18 10:17:51;;;;;;;11.07;2.50;;;15.20;99.90;;;-147.18;100.00;67318.16;5043865;28;20037;-87
2022/09/18 10:21:25;;;;;;;11.95;2.97;;;15.20;99.90;;;-147.18;100.00;67318.16;5031073;28;20409;-86
2022/09/18 10:24:59;;;;;;;14.75;3.42;;;15.20;99.90;;;-147.18;100.00;67318.16;5025128;28;20575;-86
2022/09/18 10:28:28;;;;;;;6.80;1.90;;;15.30;99.90;;;-147.18;100.00;67318.16;5028200;28;20045;-87
2022/09/18 10:31:59;;;;;;;3.97;1.20;;;15.10;99.90;;;-147.18;100.00;67318.16;5032316;28;20053;-85
2022/09/18 10:35:41;;;;;;;3.90;1.00;;;15.10;99.90;;;-147.18;100.00;67318.16;5019779;28;20041;-85
2022/09/18 10:39:30;;;;;;;3.55;1.20;;;15.00;99.90;;;-147.18;100.00;67318.16;5032724;28;20049;-86
2022/09/18 10:42:59;;;;;;;5.65;1.17;;;14.90;99.90;;;-147.18;100.00;67318.16;5044098;28;20127;-86
2022/09/18 10:46:29;;;;;;;3.58;1.10;;;14.90;99.90;;;-147.18;100.00;67318.16;5020985;28;20045;-86
2022/09/18 10:50:00;;;;;;;4.22;0.95;;;14.80;99.90;;;-147.18;100.00;67318.16;5026720;28;20045;-84
2022/09/18 10:53:30;;;;;;;4.65;1.00;;;14.80;99.90;;;-147.18;100.00;67318.16;5026779;28;20103;-86
2022/09/18 10:57:25;;;;;;;10.25;1.67;;;14.70;99.90;;;-147.18;100.00;67318.16;5027899;28;20055;-84
2022/09/18 11:00:56;;;;;;;4.60;1.40;;;14.70;99.90;;;-147.18;100.00;67318.16;5015219;28;20124;-84
2022/09/18 11:04:37;;;;;;;6.85;1.40;;;14.70;99.90;;;-147.18;100.00;67318.16;5023000;28;20039;-86
2022/09/18 11:08:05;;;;;;;4.60;1.17;;;14.70;99.90;;;-147.18;100.00;67318.16;5029254;28;20386;-86
2022/09/18 11:11:33;;;;;;;4.88;1.20;;;14.70;99.90;;;-147.18;100.00;67318.16;5024432;28;20041;-86
2022/09/18 11:15:17;;;;;;;5.45;1.27;;;14.60;99.90;;;-147.18;100.00;67318.16;5029235;28;20527;-86
2022/09/18 11:18:59;;;;;;;6.88;1.55;;;14.70;99.90;;;-147.18;100.00;67318.16;5029721;28;20049;-86
2022/09/18 11:22:31;;;;;;;4.78;1.45;;;14.80;99.90;;;-147.18;100.00;67318.16;5029400;28;20044;-87
2022/09/18 11:26:11;;;;;;;4.90;1.30;;;14.80;99.90;;;-147.18;100.00;67318.16;5026102;28;20391;-87
2022/09/18 11:29:38;;;;;;;5.20;1.40;;;14.90;99.90;;;-147.18;100.00;67318.16;5027313;28;20044;-86
2022/09/18 11:33:24;;;;;;;8.02;2.10;;;14.90;99.90;;;-147.18;100.00;67318.16;5028473;28;20048;-86
2022/09/18 11:36:57;;;;;;;4.53;1.83;;;14.90;99.90;;;-147.18;100.00;67318.16;5029054;28;20473;-86
2022/09/18 11:40:28;;;;;;;5.07;2.03;;;15.00;99.90;;;-147.18;100.00;67318.16;5028592;28;20057;-86
2022/09/18 11:43:59;;;;;;;6.70;2.42;;;15.00;99.90;;;-147.18;100.00;67318.16;5047647;28;20638;-86
2022/09/18 11:47:36;;;;;;;6.05;2.30;;;14.90;99.90;;;-147.18;100.00;67318.16;5029317;28;20706;-86
2022/09/18 11:51:13;;;;;;;10.75;2.25;;;15.00;99.90;;;-147.18;100.00;67318.16;5044315;28;20568;-86
2022/09/18 11:54:45;;;;;;;6.40;2.47;;;15.00;99.90;;;-147.18;100.00;67318.16;5025549;28;20053;-86
2022/09/18 11:58:17;;;;;;;6.32;2.70;;;15.10;99.90;;;-147.18;100.00;67318.16;5045918;28;20160;-86
2022/09/18 12:01:49;;;;;;;8.05;2.45;;;15.00;99.90;;;-147.18;100.00;67318.16;5030382;28;20049;-87
2022/09/18 12:05:23;;;;;;;6.82;2.78;;;15.10;99.90;;;-147.18;100.00;67318.16;5021056;28;20038;-86
2022/09/18 12:09:01;;;;;;;9.00;2.78;;;15.10;99.90;;;-147.18;100.00;67318.16;5031141;28;20045;-86
2022/09/18 12:12:35;;;;;;;7.32;2.47;;;15.10;99.90;;;-147.18;100.00;67318.16;5030262;28;20103;-86
2022/09/18 12:16:09;;;;;;;10.68;2.20;;;15.10;99.90;;;-147.18;100.00;67318.16;5029363;28;20087;-85
2022/09/18 12:19:49;;;;;;;9.23;1.70;;;15.20;99.90;;;-147.18;100.00;67318.16;5028141;28;20656;-85
2022/09/18 12:23:21;;;;;;;8.90;1.90;;;15.20;99.90;;;-147.18;100.00;67318.16;5027319;28;20060;-85
2022/09/18 12:27:07;;;;;;;6.28;2.10;;;15.20;99.90;;;-147.18;100.00;67318.16;5027435;28;20048;-84
2022/09/18 12:30:51;;;;;;;6.70;1.83;;;15.10;99.90;;;-147.18;100.00;67318.16;5022564;28;20128;-86
2022/09/18 12:34:36;;;;;;;5.82;1.92;;;15.20;99.90;;;-147.18;100.00;67318.16;5048819;28;20045;-86
2022/09/18 12:38:28;;;;;;;10.55;2.08;;;15.20;99.90;;;-147.18;100.00;67318.16;5042647;28;20120;-87
2022/09/18 12:42:13;;;;;;;7.60;2.20;;;15.20;99.90;;;-147.18;100.00;67318.16;5033933;28;20037;-86
2022/09/18 12:46:25;;;;;;;7.70;2.47;;;15.20;99.90;;;-147.18;100.00;67318.16;5040063;28;20045;-87
2022/09/18 12:50:21;;;;;;;6.85;2.08;;;15.10;99.90;;;-147.18;100.00;67318.16;5173347;23;20045;-79
2022/09/18 12:53:59;;;;;;;6.68;2.15;;;15.10;99.90;;;-147.18;100.00;67318.16;5060226;28;20037;-78
2022/09/18 12:57:47;;;;;;;6.40;1.98;;;15.10;99.90;;;-147.18;100.00;67318.16;5059626;28;20085;-79
2022/09/18 13:01:20;;;;;;;7.63;2.28;;;15.10;99.90;;;-147.18;100.00;67318.16;5036863;28;20598;-79
2022/09/18 13:04:49;;;;;;;5.70;1.85;;;15.10;99.90;;;-147.18;100.00;67318.16;5042517;28;20045;-79
2022/09/18 13:08:22;;;;;;;9.70;2.35;;;15.20;99.90;;;-147.18;100.00;67318.16;5039876;28;20033;-79
2022/09/18 13:11:51;;;;;;;6.35;2.38;;;15.10;99.90;;;-147.18;100.00;67318.16;5042576;28;20041;-79
2022/09/18 13:15:22;;;;;;;7.70;2.38;;;15.20;99.90;;;-147.18;100.00;67318.16;5043234;28;20051;-80
2022/09/18 13:18:53;;;;;;;8.30;2.65;;;15.20;99.90;;;-147.18;100.00;67318.16;5039362;28;20051;-79
2022/09/18 13:22:28;;;;;;;8.77;3.60;;;15.20;99.90;;;-147.18;100.00;67318.16;5043756;28;20507;-79
2022/09/18 13:25:57;;;;;;;24.00;4.28;;;15.10;99.90;;;-147.18;100.00;67318.16;5044034;28;20041;-79
2022/09/18 13:29:43;;;;;;;13.77;3.92;;;15.10;99.90;;;-147.18;100.00;67318.16;5032705;28;20041;-79
2022/09/18 13:33:21;;;;;;;11.18;2.25;;;15.10;99.90;;;-147.18;100.00;67318.16;5038965;28;20076;-79
2022/09/18 13:36:52;;;;;;;5.72;1.65;;;15.00;99.90;;;-147.18;100.00;67318.16;5040491;28;20041;-79
2022/09/18 13:40:30;;;;;;;3.72;1.40;;;15.00;99.90;;;-147.18;100.00;67318.16;5037392;28;20041;-79
2022/09/18 13:43:57;;;;;;;4.55;1.38;;;14.90;99.90;;;-147.18;100.00;67318.16;5038387;28;20049;-79
2022/09/18 13:47:54;;;;;;;5.20;1.25;;;14.90;99.90;;;-147.18;100.00;67318.16;5044545;28;20522;-79
2022/09/18 13:51:23;;;;;;;3.88;1.10;;;14.80;99.90;;;-147.18;100.00;67318.16;5043771;28;20100;-79
2022/09/18 13:55:33;;;;;;;11.55;1.50;;;14.70;99.90;;;-147.18;100.00;67318.16;5039358;28;20053;-79
2022/09/18 13:59:46;;;;;;;5.60;1.75;;;14.70;99.90;;;-147.18;100.00;67318.16;5032562;28;20048;-79
2022/09/18 14:03:40;;;;;;;4.38;1.80;;;14.60;99.90;;;-147.18;100.00;67318.16;5028292;28;20080;-79
2022/09/18 14:07:56;;;;;;;8.93;1.30;;;14.60;99.90;;;-147.18;100.00;67318.16;5040530;28;20117;-79
2022/09/18 14:11:30;;;;;;;4.35;1.10;;;14.60;99.90;;;-147.18;100.00;67318.16;5043089;28;20044;-79
2022/09/18 14:15:00;;;;;;;4.07;1.35;;;14.50;99.90;;;-147.18;100.00;67318.16;5042211;28;20104;-79
2022/09/18 14:18:27;;;;;;;4.03;1.02;;;14.50;99.90;;;-147.18;100.00;67318.16;5039977;28;20501;-91
2022/09/18 14:21:57;;;;;;;4.78;0.90;;;14.50;99.90;;;-147.18;100.00;67318.16;5043003;28;20527;-80
2022/09/18 14:25:54;;;;;;;3.03;0.60;;;14.40;99.90;;;-147.18;100.00;67318.16;5033429;28;20045;-80
2022/09/18 14:29:20;;;;;;;4.45;1.00;;;14.30;99.90;;;-147.18;100.00;67318.16;5035863;28;20042;-80
2022/09/18 14:33:11;;;;;;;3.38;1.00;;;14.30;99.90;;;-147.18;100.00;67318.16;5042541;28;20121;-79